Tiempo atmosférico en la estación meteorológica de Adra,club Naútico, Almería (8 m.)



Fecha
DESCASC
Temp. máxima en grados centígrados (hora)
DESCASC
Temp. mínima en grados centígrados (hora)
DESCASC
Temp. media en grados centígrados
DESCASC
Racha de viento máxima en m/sg (hora)
DESCASC
Velocidad máxima media en intervalos de 10 minutos(hora)
DESCASC
Precipitaciones diarias en mm
DESCASC
Precipitaciones de 00:00 a 06:00 en mm
DESCASC
Precipitaciones de 06:00 a 12:00 en mm
DESCASC
Precipitaciones de 12:00 a 18:00 en mm
DESCASC
Precipitaciones de 18:00 a 24:00 en mm
DESCASC

Gráficas

Temp. máximas Temp. mínimas Temp. medias Precipitaciones Rachas de viento máximas Velocidades máximas media en intervalos de 10 minutos

Datos horarios

Fecha y hora oficial Temperatura (ºC) Velocidad del viento (km/h) Dirección del viento Racha (km/h) Dirección de racha Precipitación (mm) Presión (hPa) Tendencia (hPa) Humedad (%)
2019-10-18 23:00:00 17.9 2 Norte 4 Norte 0 1015.2 0.1 83
2019-10-18 22:00:00 18 0 Calma 4 Oeste 0 1015 -0.2 92
2019-10-18 21:00:00 18.7 4 Oeste 8 Noroeste 0 1015.2 0 93
2019-10-18 20:00:00 19.3 5 Noroeste 11 Oeste 0 1015.1 -0.6 92
2019-10-18 19:00:00 19.7 9 Oeste 14 Oeste 0 1015.2 0.3 88
2019-10-18 18:00:00 20.5 8 Sudoeste 13 Sur 0 1015.2 -0.3 83
2019-10-18 17:00:00 21 9 Sudoeste 14 Sudoeste 0 1015.7 -1.5 78
2019-10-18 16:00:00 22.1 5 Sudoeste 15 Sudoeste 0 1014.9 -2.5 74
2019-10-18 15:00:00 21.4 8 Sudoeste 14 Sudoeste 0 1015.5 -2.3 72
2019-10-18 14:00:00 21.1 8 Sudoeste 14 Oeste 0 1017.2 0.2 78
2019-10-18 13:00:00 20.9 8 Sudoeste 15 Oeste 0 1017.4 0.5 81
2019-10-18 12:00:00 19.9 10 Oeste 14 Oeste 0 1017.8 0 75
2019-10-18 11:00:00 22.1 4 Sudoeste 7 Sudoeste 0 1017 -0.9 55
2019-10-18 10:00:00 21.4 0 Calma 3 Nordeste 0 1016.9 -1.3 53
2019-10-18 09:00:00 17.7 0 Calma 5 Norte 0 1017.8 -0.2 56
2019-10-18 08:00:00 16.7 3 Norte 5 Nordeste 0 1017.9 -0.4 53
2019-10-18 07:00:00 16.9 0 Calma 11 Este 0 1018.2 -0.5 51
2019-10-18 06:00:00 17.9 5 Este 9 Este 0 1018 -1.1 49
2019-10-18 05:00:00 16.9 2 Norte 6 Norte 0 1018.3 -0.8 65
2019-10-18 04:00:00 17.6 3 Norte 9 Norte 0 1018.7 -0.5 61
2019-10-18 03:00:00 17.3 0 Calma 6 Norte 0 1019.1 0 66
2019-10-18 02:00:00 17.9 2 Norte 6 Noroeste 0 1019.1 0.3 70
2019-10-18 01:00:00 18.4 4 Norte 7 Norte 0 1019.2 1 60
2019-10-18 00:00:00 18.3 4 Norte 13 Nordeste 0 1019.1 1.4 60
2019-10-17 23:00:00 18.3 5 Este 11 Este 0 1018.8 1.4 65
2019-10-17 22:00:00 18.5 0 Calma 5 Nordeste 0 1018.2 1.4 69
2019-10-17 21:00:00 19 0 Calma 6 Oeste 0 1017.7 1.2 69
2019-10-17 20:00:00 19.6 6 Oeste 18 Oeste 0 1017.4 0.7 72
2019-10-17 19:00:00 19.9 11 Oeste 23 Oeste 0 1016.8 0.1 76
2019-10-17 18:00:00 20.5 13 Oeste 21 Sudoeste 0 1016.5 -0.8 72
2019-10-17 17:00:00 20.4 13 Sudoeste 24 Oeste 0 1016.7 -1.6 73
2019-10-17 16:00:00 20.4 17 Oeste 29 Oeste 0 1016.7 -2.1 72
2019-10-17 15:00:00 20.1 21 Oeste 32 Sudoeste 0 1017.3 -1.5 70
2019-10-17 14:00:00 19.9 21 Oeste 32 Sudoeste 0 1018.3 -0.3 72
2019-10-17 13:00:00 19.8 20 Oeste 33 Oeste 0 1018.8 1.1 69
2019-10-17 12:00:00 20.1 16 Oeste 24 Oeste 0 1018.8 0.4 55
2019-10-17 11:00:00 20.3 7 Sudoeste 13 Oeste 0 1018.6 -0.2 50
2019-10-17 10:00:00 21 0 Calma 3 Sur 0 1017.7 -0.8 50
2019-10-17 09:00:00 17.2 0 Calma 7 Norte 0 1018.4 0 58
2019-10-17 08:00:00 15.6 3 Norte 6 Norte 0 1018.8 0.3 59
2019-10-17 07:00:00 15.8 3 Norte 6 Norte 0 1018.5 -0.3 59
2019-10-17 06:00:00 16.3 3 Norte 7 Norte 0 1018.4 -1 61
2019-10-17 05:00:00 16.3 5 Norte 8 Nordeste 0 1018.5 -0.5 61
2019-10-17 04:00:00 16.6 3 Nordeste 6 Norte 0 1018.8 -0.6 61
2019-10-17 03:00:00 16.4 0 Calma 6 Este 0 1019.4 -0.1 62
2019-10-17 02:00:00 18 3 Norte 12 Oeste 0 1019 -0.2 65
2019-10-17 01:00:00 17.2 3 Norte 9 Oeste 0 1019.4 1 65
2019-10-17 00:00:00 17.7 3 Norte 8 Oeste 0 1019.5 1.4 64
2019-10-16 23:00:00 17.7 0 Calma 6 Norte 0 1019.2 1.5 67
2019-10-16 22:00:00 17.9 4 Norte 6 Norte 0 1018.4 1.3 60
2019-10-16 21:00:00 18.2 0 Calma 9 Oeste 0 1018.1 1.2 74
2019-10-16 20:00:00 19.1 5 Oeste 13 Sudoeste 0 1017.7 0.5 78
2019-10-16 19:00:00 20.6 6 Sudoeste 16 Sudoeste 0 1017.1 -0.6 72
2019-10-16 18:00:00 20.8 11 Sudoeste 18 Oeste 0 1016.9 -1.4 71
2019-10-16 17:00:00 20.9 11 Sudoeste 19 Sudoeste 0 1017.2 -2.7 66
2019-10-16 16:00:00 21.4 10 Sudoeste 18 Sudoeste 0 1017.7 -2.6 60
2019-10-16 15:00:00 21.7 7 Sudoeste 13 Sudoeste 0 1018.3 -2.4 51
2019-10-16 14:00:00 22 6 Sudoeste 12 Sudoeste 0 1019.9 -0.2 59
2019-10-16 13:00:00 21.9 4 Sur 8 Sudoeste 0 1020.3 0.1 61
2019-10-16 12:00:00 20.3 5 Sudeste 10 Sudeste 0 1020.7 0.1 62
2019-10-16 11:00:00 21.2 5 Este 12 Nordeste 0 1020.1 -0.6 46
2019-10-16 10:00:00 20 3 Este 11 Este 0 1020.2 -0.5 44
2019-10-16 09:00:00 17.2 3 Este 11 Nordeste 0 1020.6 -0.1 50
2019-10-16 08:00:00 16.7 5 Nordeste 14 Este 0 1020.7 -0.1 50
2019-10-16 07:00:00 16.1 2 Norte 7 Noroeste 0 1020.7 -0.2 50
2019-10-16 06:00:00 15.8 3 Norte 4 Norte 0 1020.7 -0.6 54
2019-10-16 05:00:00 16.3 3 Norte 5 Norte 0 1020.8 -0.8 54
2019-10-16 04:00:00 16.4 3 Norte 6 Norte 0 1020.9 -0.6 53
2019-10-16 03:00:00 16.9 0 Calma 7 Norte 0 1021.3 -0.1 50
2019-10-16 02:00:00 17.4 3 Nordeste 8 Nordeste 0 1021.6 0.7 53
2019-10-16 01:00:00 17.6 4 Norte 5 Norte 0 1021.5 0.8 51
2019-10-16 00:00:00 17.4 0 Calma 5 Noroeste 0 1021.4 1 54
2019-10-15 23:00:00 18.3 0 Calma 5 Norte 0 1020.9 1.1 50
2019-10-15 22:00:00 18.5 2 Norte 7 Noroeste 0 1020.7 2 51
2019-10-15 21:00:00 18.7 0 Calma 5 Noroeste 0 1020.4 1.9 58
2019-10-15 20:00:00 19.4 0 Calma 8 Sudeste 0 1019.8 1.8 54
2019-10-15 19:00:00 21.1 4 Sudeste 8 Noroeste 0 1018.7 1.2 46
2019-10-15 18:00:00 20.5 5 Sudoeste 10 Sudoeste 0 1018.5 0.4 51
2019-10-15 17:00:00 21.3 5 Sudoeste 11 Sudoeste 0 1018 -1.4 50
2019-10-15 16:00:00 21.4 6 Sudeste 14 Sudeste 0 1017.5 -1.9 49
2019-10-15 15:00:00 21.6 8 Sudeste 18 Este 0 1018.1 -1 49
2019-10-15 14:00:00 21.3 9 Este 23 Sudeste 0 1019.4 0.3 46
2019-10-15 13:00:00 21.1 12 Sudeste 28 Este 0 1019.4 1.1 48
2019-10-15 12:00:00 21.4 13 Este 28 Este 0 1019.1 1.4 46
2019-10-15 11:00:00 20.4 10 Sudeste 17 Sudeste 0 1019.1 1.3 54
2019-10-15 10:00:00 20.2 6 Nordeste 20 Norte 0 1018.3 1.1 50
2019-10-15 09:00:00 18.8 9 Norte 19 Nordeste 0 1017.7 0.6 54
2019-10-15 08:00:00 17.7 7 Norte 18 Nordeste 0 1017.8 1.1 55
2019-10-15 07:00:00 18.2 5 Norte 16 Norte 0 1017.2 0.7 54
2019-10-15 06:00:00 19.5 3 Noroeste 26 Oeste 0 1017.1 0.6 56
2019-10-15 05:00:00 20.1 6 Norte 22 Oeste 0 1016.7 0.5 54
2019-10-15 04:00:00 19.4 4 Norte 19 Oeste 0 1016.5 0.2 59
2019-10-15 03:00:00 20 12 Oeste 40 Oeste 0 1016.5 0.3 66
2019-10-15 02:00:00 20.4 24 Oeste 35 Oeste 0 1016.2 0.4 64
2019-10-15 01:00:00 20.6 15 Oeste 37 Oeste 0 1016.3 1 65
2019-10-15 00:00:00 21.1 15 Oeste 33 Oeste 0 1016.2 1.4 58
2019-10-14 23:00:00 20.5 18 Oeste 34 Oeste 0 1015.8 1.4 72
2019-10-14 22:00:00 21.3 25 Oeste 50 Oeste 0 1015.3 1.6 72
2019-10-14 21:00:00 21.4 26 Oeste 52 Oeste 0 1014.8 1.3 75
2019-10-14 20:00:00 21.4 29 Oeste 48 Oeste 0 1014.4 1.3 80
2019-10-14 19:00:00 21.2 32 Oeste 58 Oeste 0 1013.7 1.1 84
2019-10-14 18:00:00 21.3 35 Oeste 60 Sudoeste 0 1013.5 1.1 82
2019-10-14 17:00:00 21.8 32 Oeste 58 Oeste 0 1013.1 -0.7 77
2019-10-14 16:00:00 22.1 34 Oeste 55 Oeste 0 1012.6 -1.4 76
2019-10-14 15:00:00 22.6 28 Oeste 50 Oeste 0 1012.4 -1.4 75
2019-10-14 14:00:00 22.4 27 Oeste 51 Oeste 0 1013.8 -0.3 80
2019-10-14 13:00:00 22.1 28 Oeste 48 Oeste 0 1014 0.3 81
2019-10-14 12:00:00 22.2 26 Oeste 42 Sudoeste 0 1013.8 0.6 84
2019-10-14 11:00:00 22.5 17 Oeste 34 Sudoeste 0 1014.1 1 81
2019-10-14 10:00:00 22.9 9 Sudoeste 27 Oeste 0 1013.7 0.9 76
2019-10-14 09:00:00 21.8 4 Oeste 22 Sudoeste 0 1013.2 0.9 82
2019-10-14 08:00:00 22.2 10 Sudoeste 18 Sudoeste 0 1013.1 0.7 83
2019-10-14 07:00:00 21.1 6 Oeste 21 Oeste 0 1012.8 0.2 87
2019-10-14 06:00:00 21.9 8 Oeste 20 Oeste 0 1012.3 -0.4 82
2019-10-14 05:00:00 21.4 12 Oeste 26 Oeste 0 1012.4 -0.8 87
2019-10-14 04:00:00 22.4 17 Oeste 29 Oeste 0 1012.6 -1.1 83
2019-10-14 03:00:00 22.2 6 Oeste 15 Oeste 0 1012.7 -2.5 70
2019-10-14 02:00:00 21.6 8 Este 24 Este 0 1013.2 -1.8 72
2019-10-14 01:00:00 21.8 6 Este 22 Este 0 1013.7 -1.3 81
2019-10-14 00:00:00 21.4 3 Sudeste 10 Este 0 1015.2 1.3 91
2019-10-13 23:00:00 21.7 3 Nordeste 7 Este 0 1015 0.9 93
2019-10-13 22:00:00 21.9 3 Sudoeste 6 Sudeste 0 1015 1.4 92
2019-10-13 21:00:00 22.2 3 Sudeste 14 Sur 0 1013.9 1 88
2019-10-13 20:00:00 22.8 2 Sudeste 5 Sudeste 0 1014.1 0.7 81
2019-10-13 19:00:00 24.4 0 Calma 7 Sudeste 0 1013.6 -0.2 73
2019-10-13 18:00:00 24.6 2 Sur 11 Sudeste 0 1012.9 -1.2 74
2019-10-13 17:00:00 23.8 7 Sudeste 10 Sudeste 0 1013.4 -2.2 76
2019-10-13 16:00:00 24.4 5 Sudeste 9 Sur 0 1013.8 -2.3 72
2019-10-13 15:00:00 25.1 4 Sur 10 Sur 0 1014.1 -1.6 68
2019-10-13 14:00:00 25.1 5 Sur 9 Sur 0 1015.6 -0.2 72
2019-10-13 13:00:00 24.8 4 Sur 9 Sur 0 1016.1 0.8 70
2019-10-13 12:00:00 25.9 2 Sur 6 Sur 0 1015.7 -0.4 65
2019-10-13 11:00:00 24.6 4 Sur 7 Este 0 1015.8 -0.2 64
2019-10-13 10:00:00 23.9 0 Calma 3 Sudeste 0 1015.3 -0.4 71
2019-10-13 09:00:00 20.3 2 Este 11 Nordeste 0 1016.1 0.9 77
2019-10-13 08:00:00 19.7 0 Calma 4 Nordeste 0 1016 0.4 90
2019-10-13 07:00:00 20.1 0 Calma 7 Oeste 0 1015.7 -0.3 90
2019-10-13 06:00:00 20.3 0 Calma 5 Norte 0 1015.2 -0.9 89
2019-10-13 05:00:00 20.2 2 Norte 5 Norte 0 1015.6 -0.5 90
2019-10-13 04:00:00 20.7 0 Calma 8 Oeste 0 1016 -0.6 89
2019-10-13 03:00:00 21.1 3 Oeste 9 Oeste 0 1016.1 -0.5 89
2019-10-13 02:00:00 21.2 2 Noroeste 9 Oeste 0 1016.1 -0.3 88
2019-10-13 01:00:00 21.3 0 Calma 5 Norte 0 1016.6 0.7 88
2019-10-13 00:00:00 21.3 3 Norte 5 Norte 0 1016.6 1.2 88
2019-10-12 23:00:00 21.6 0 Calma 12 Oeste 0 1016.4 1.2 89
2019-10-12 22:00:00 22.1 7 Oeste 10 Sudoeste 0 1015.9 0.9 91
2019-10-12 21:00:00 22.3 7 Oeste 13 Oeste 0 1015.4 1.4 92
2019-10-12 20:00:00 22.4 8 Oeste 14 Sudoeste 0 1015.2 1.8 90
2019-10-12 19:00:00 22.9 10 Oeste 16 Oeste 0 1015 1.8 84
2019-10-12 18:00:00 24.6 7 Oeste 13 Oeste 0 1014 -0.3 76
2019-10-12 17:00:00 26.2 2 Sur 12 Sudoeste 0 1013.4 -2 69
2019-10-12 16:00:00 25.6 0 Calma 16 Sudeste 0 1013.2 -3.5 74
2019-10-12 15:00:00 24.5 8 Sudeste 19 Sudeste 0 1014.3 -2.6 73
2019-10-12 14:00:00 25 5 Sudeste 12 Este 0 1015.4 -1.8 70
2019-10-12 13:00:00 24.2 0 Calma 8 Sur 0 1016.7 -0.1 71
2019-10-12 12:00:00 23.8 3 Sur 7 Sur 0 1016.9 0.6 72
2019-10-12 11:00:00 23 4 Este 8 Este 0 1017.2 1 73
2019-10-12 10:00:00 22.7 0 Calma 3 Norte 0 1016.8 0 74
2019-10-12 09:00:00 21.3 2 Norte 19 Este 0 1016.3 -0.1 75
2019-10-12 08:00:00 20.7 3 Nordeste 9 Nordeste 0 1016.2 -0.5 81
2019-10-12 07:00:00 21.2 3 Norte 8 Norte 0 1016.8 0 80
2019-10-12 06:00:00 20.9 0 Calma 8 Este 0 1016.4 -0.4 81
2019-10-12 05:00:00 20.4 2 Norte 14 Sudoeste 0 1016.7 -1.1 82
2019-10-12 04:00:00 21.6 7 Oeste 13 Norte 0 1016.8 -1.2 79
2019-10-12 03:00:00 21.3 4 Este 10 Sudeste 0 1016.8 -1.8 77
2019-10-12 02:00:00 21.5 0 Calma 5 Sudoeste 0 1017.8 -0.3 82
2019-10-12 01:00:00 21.5 0 Calma 13 Oeste 0 1018 -0.1 80
2019-10-12 00:00:00 21.4 7 Oeste 13 Oeste 0 1018.6 1.5 84
2019-10-11 23:00:00 21.6 2 Este 13 Sudoeste 0 1018.1 1.4 82
2019-10-11 22:00:00 21.7 5 Oeste 9 Oeste 0 1018.1 1.7 84
2019-10-11 21:00:00 21.7 0 Calma 10 Sudoeste 0 1017.1 -- 83
2019-10-11 20:00:00 22.2 8 Oeste 16 Oeste 0 1016.7 -- 83
2019-10-11 19:00:00 22.3 7 Oeste -- -- -- 1016.4 -- 81
2019-10-11 18:00:00 -- -- -- -- -- -- -- -- --
2019-10-11 17:00:00 -- -- -- -- -- -- -- -- --
2019-10-11 16:00:00 -- -- -- -- -- -- -- -- --
2019-10-11 15:00:00 -- -- -- -- -- -- -- -- --
2019-10-11 14:00:00 -- -- -- -- -- -- -- -- --
2019-10-11 13:00:00 -- -- -- -- -- -- -- -- --
2019-10-11 12:00:00 -- -- -- -- -- -- -- -- --
2019-10-11 11:00:00 -- -- -- -- -- -- -- -- --
2019-10-11 10:00:00 -- -- -- -- -- -- -- -- --
2019-10-11 09:00:00 -- -- -- -- -- -- -- -- --
2019-10-11 08:00:00 -- -- -- -- -- -- -- -- --
2019-10-11 07:00:00 -- -- -- -- -- -- -- -- --
2019-10-11 06:00:00 -- -- -- -- -- -- -- -- --
2019-10-11 05:00:00 -- -- -- -- -- -- -- -- --
2019-10-11 04:00:00 -- -- -- -- -- -- -- -- --
2019-10-11 03:00:00 -- -- -- -- -- -- -- -- --
2019-10-11 02:00:00 -- -- -- -- -- -- -- -- --
2019-10-11 01:00:00 -- -- -- -- -- -- -- -- --
2019-10-11 00:00:00 -- -- -- -- -- -- -- -- --
2019-10-10 23:00:00 -- -- -- -- -- -- -- -- --
2019-10-10 22:00:00 -- -- -- -- -- -- -- -- --
2019-10-10 21:00:00 -- -- -- -- -- -- -- -- --
2019-10-10 20:00:00 -- -- -- -- -- -- -- -- --
2019-10-10 19:00:00 -- -- -- -- -- -- -- -- --
2019-10-10 18:00:00 -- -- -- -- -- -- -- -- --
2019-10-10 17:00:00 -- -- -- -- -- -- -- -- --
2019-10-10 16:00:00 -- -- -- -- -- -- -- -- --
2019-10-10 15:00:00 -- -- -- -- -- -- -- -- --
2019-10-10 14:00:00 -- -- -- -- -- -- -- -- --
2019-10-10 13:00:00 -- -- -- -- -- -- -- -- --
2019-10-10 12:00:00 -- -- -- -- -- -- -- -- --
2019-10-10 11:00:00 -- -- -- -- -- -- -- -- --
2019-10-10 10:00:00 -- -- -- -- -- -- -- -- --
2019-10-10 09:00:00 -- -- -- -- -- -- -- -- --
2019-10-10 08:00:00 -- -- -- -- -- -- -- -- --
2019-10-10 07:00:00 -- -- -- -- -- -- -- -- --
2019-10-10 06:00:00 -- -- -- -- -- -- -- -- --
2019-10-10 05:00:00 -- -- -- -- -- -- -- -- --
2019-10-10 04:00:00 -- -- -- -- -- -- -- -- --
2019-10-10 03:00:00 -- -- -- -- -- -- -- -- --
2019-10-10 02:00:00 -- -- -- -- -- -- -- -- --
2019-10-10 01:00:00 -- -- -- -- -- -- -- -- --
2019-10-10 00:00:00 -- -- -- -- -- -- -- -- --
2019-10-09 23:00:00 -- -- -- -- -- -- -- -- --
2019-10-09 22:00:00 -- -- -- -- -- -- -- -- --
2019-10-09 21:00:00 -- -- -- -- -- -- -- -- --
2019-10-09 20:00:00 -- -- -- -- -- -- -- -- --
2019-10-09 19:00:00 -- -- -- -- -- -- -- -- --
2019-10-09 18:00:00 -- -- -- -- -- -- -- -- --
2019-10-09 17:00:00 -- -- -- -- -- -- -- -- --
2019-10-09 16:00:00 -- -- -- -- -- -- -- -- --
2019-10-09 15:00:00 -- -- -- -- -- -- -- -- --
2019-10-09 14:00:00 -- -- -- -- -- -- -- -- --
2019-10-09 13:00:00 -- -- -- -- -- -- -- -- --
2019-10-09 12:00:00 -- -- -- -- -- -- -- -- --
2019-10-09 11:00:00 -- -- -- -- -- -- -- -- --
2019-10-09 10:00:00 -- -- -- -- -- -- -- -- --
2019-10-09 09:00:00 -- -- -- -- -- -- -- -- --
2019-10-09 08:00:00 -- -- -- -- -- -- -- -- --
2019-10-09 07:00:00 -- -- -- -- -- -- -- -- --
2019-10-09 06:00:00 -- -- -- -- -- -- -- -- --
2019-10-09 05:00:00 -- -- -- -- -- -- -- -- --
2019-10-09 04:00:00 -- -- -- -- -- -- -- -- --
2019-10-09 03:00:00 -- -- -- -- -- -- -- -- --
2019-10-09 02:00:00 -- -- -- -- -- -- -- -- --
2019-10-09 01:00:00 -- -- -- -- -- -- -- -- --
2019-10-09 00:00:00 -- -- -- -- -- -- -- -- --
2019-10-08 23:00:00 -- -- -- -- -- -- -- -- --
2019-10-08 22:00:00 -- -- -- -- -- -- -- -- --
2019-10-08 21:00:00 -- -- -- -- -- -- -- -- --
2019-10-08 20:00:00 -- -- -- -- -- -- -- -- --
2019-10-08 19:00:00 -- -- -- -- -- -- -- -- --
2019-10-08 18:00:00 -- -- -- -- -- -- -- -- --
2019-10-08 17:00:00 -- -- -- -- -- -- -- -- --
2019-10-08 16:00:00 -- -- -- -- -- -- -- -- --
2019-10-08 15:00:00 -- -- -- -- -- -- -- -- --
2019-10-08 14:00:00 -- -- -- -- -- -- -- -- --
2019-10-08 13:00:00 -- -- -- -- -- -- -- -- --
2019-10-08 12:00:00 -- -- -- -- -- -- -- -- --
2019-10-08 11:00:00 -- -- -- -- -- -- -- -- --
2019-10-08 10:00:00 -- -- -- -- -- -- -- -- --
2019-10-08 09:00:00 -- -- -- -- -- -- -- -- --
2019-10-08 08:00:00 -- -- -- -- -- -- -- -- --
2019-10-08 07:00:00 -- -- -- -- -- -- -- -- --
2019-10-08 06:00:00 -- -- -- -- -- -- -- -- --
2019-10-08 05:00:00 -- -- -- -- -- -- -- -- --
2019-10-08 04:00:00 -- -- -- -- -- -- -- -- --
2019-10-08 03:00:00 -- -- -- -- -- -- -- -- --
2019-10-08 02:00:00 -- -- -- -- -- -- -- -- --
2019-10-08 01:00:00 -- -- -- -- -- -- -- -- --
2019-10-08 00:00:00 -- -- -- -- -- -- -- -- --
2019-10-07 23:00:00 -- -- -- -- -- -- -- -- --
2019-10-07 22:00:00 -- -- -- -- -- -- -- -- --
2019-10-07 21:00:00 -- -- -- -- -- -- -- -- --
2019-10-07 20:00:00 -- -- -- -- -- -- -- -- --
2019-10-07 19:00:00 -- -- -- -- -- -- -- -- --
2019-10-07 18:00:00 -- -- -- -- -- -- -- -- --
2019-10-07 17:00:00 -- -- -- -- -- -- -- -- --
2019-10-07 16:00:00 -- -- -- -- -- -- -- -- --
2019-10-07 15:00:00 -- -- -- -- -- -- -- -- --
2019-10-07 14:00:00 -- -- -- -- -- -- -- -- --
2019-10-07 13:00:00 -- -- -- -- -- -- -- -- --
2019-10-07 12:00:00 -- -- -- -- -- -- -- -- --
2019-10-07 11:00:00 -- -- -- -- -- -- -- -- --
2019-10-07 10:00:00 -- -- -- -- -- -- -- -- --
2019-10-07 09:00:00 -- -- -- -- -- -- -- -- --
2019-10-07 08:00:00 -- -- -- -- -- -- -- -- --
2019-10-07 07:00:00 -- -- -- -- -- -- -- -- --
2019-10-07 06:00:00 -- -- -- -- -- -- -- -- --
2019-10-07 05:00:00 -- -- -- -- -- -- -- -- --
2019-10-07 04:00:00 -- -- -- -- -- -- -- -- --
2019-10-07 03:00:00 -- -- -- -- -- -- -- -- --
2019-10-07 02:00:00 -- -- -- -- -- -- -- -- --
2019-10-07 01:00:00 -- -- -- -- -- -- -- -- --
2019-10-07 00:00:00 -- -- -- -- -- -- -- -- --
2019-10-06 23:00:00 -- -- -- -- -- -- -- -- --
2019-10-06 22:00:00 -- -- -- -- -- -- -- -- --
2019-10-06 21:00:00 -- -- -- -- -- -- -- -- --
2019-10-06 20:00:00 -- -- -- -- -- -- -- -- --
2019-10-06 19:00:00 -- -- -- -- -- -- -- -- --
2019-10-06 18:00:00 -- -- -- -- -- -- -- -- --
2019-10-06 17:00:00 -- -- -- -- -- -- -- -- --
2019-10-06 16:00:00 -- -- -- -- -- -- -- -- --
2019-10-06 15:00:00 -- -- -- -- -- -- -- -- --
2019-10-06 14:00:00 -- -- -- -- -- -- -- -- --
2019-10-06 13:00:00 -- -- -- -- -- -- -- -- --
2019-10-06 12:00:00 -- -- -- -- -- -- -- -- --
2019-10-06 11:00:00 -- -- -- -- -- -- -- -- --
2019-10-06 10:00:00 -- -- -- -- -- -- -- -- --
2019-10-06 09:00:00 -- -- -- -- -- -- -- -- --
2019-10-06 08:00:00 -- -- -- -- -- -- -- -- --
2019-10-06 07:00:00 -- -- -- -- -- -- -- -- --
2019-10-06 06:00:00 -- -- -- -- -- -- -- -- --
2019-10-06 05:00:00 -- -- -- -- -- -- -- -- --
2019-10-06 04:00:00 -- -- -- -- -- -- -- -- --
2019-10-06 03:00:00 -- -- -- -- -- -- -- -- --
2019-10-06 02:00:00 -- -- -- -- -- -- -- -- --
2019-10-06 01:00:00 -- -- -- -- -- -- -- -- --
2019-10-06 00:00:00 -- -- -- -- -- -- -- -- --
2019-10-05 23:00:00 -- -- -- -- -- -- -- -- --
2019-10-05 22:00:00 -- -- -- -- -- -- -- -- --
2019-10-05 21:00:00 -- -- -- -- -- -- -- -- --
2019-10-05 20:00:00 -- -- -- -- -- -- -- -- --
2019-10-05 19:00:00 -- -- -- -- -- -- -- -- --
2019-10-05 18:00:00 -- -- -- -- -- -- -- -- --
2019-10-05 17:00:00 -- -- -- -- -- -- -- -- --
2019-10-05 16:00:00 -- -- -- -- -- -- -- -- --
2019-10-05 15:00:00 -- -- -- -- -- -- -- -- --
2019-10-05 14:00:00 -- -- -- -- -- -- -- -- --
2019-10-05 13:00:00 -- -- -- -- -- -- -- -- --
2019-10-05 12:00:00 -- -- -- -- -- -- -- -- --
2019-10-05 11:00:00 -- -- -- -- -- -- -- -- --
2019-10-05 10:00:00 -- -- -- -- -- -- -- -- --
2019-10-05 09:00:00 -- -- -- -- -- -- -- -- --
2019-10-05 08:00:00 -- -- -- -- -- -- -- -- --
2019-10-05 07:00:00 -- -- -- -- -- -- -- -- --
2019-10-05 06:00:00 -- -- -- -- -- -- -- -- --
2019-10-05 05:00:00 -- -- -- -- -- -- -- -- --
2019-10-05 04:00:00 -- -- -- -- -- -- -- -- --
2019-10-05 03:00:00 -- -- -- -- -- -- -- -- --
2019-10-05 02:00:00 -- -- -- -- -- -- -- -- --
2019-10-05 01:00:00 -- -- -- -- -- -- -- -- --
2019-10-05 00:00:00 -- -- -- -- -- -- -- -- --
2019-10-04 23:00:00 -- -- -- -- -- -- -- -- --
2019-10-04 22:00:00 -- -- -- -- -- -- -- -- --
2019-10-04 21:00:00 -- -- -- -- -- -- -- -- --
2019-10-04 20:00:00 -- -- -- -- -- -- -- -- --
2019-10-04 19:00:00 -- -- -- -- -- -- -- -- --
2019-10-04 18:00:00 -- -- -- -- -- -- -- -- --
2019-10-04 17:00:00 -- -- -- -- -- -- -- -- --
2019-10-04 16:00:00 -- -- -- -- -- -- -- -- --
2019-10-04 15:00:00 -- -- -- -- -- -- -- -- --
2019-10-04 14:00:00 -- -- -- -- -- -- -- -- --
2019-10-04 13:00:00 -- -- -- -- -- -- -- -- --
2019-10-04 12:00:00 -- -- -- -- -- -- -- -- --
2019-10-04 11:00:00 22.2 6 Sudeste 12 Sudeste 0 1016.9 -0.2 65
2019-10-04 10:00:00 22.8 4 Este 9 Este 0 1016.2 -0.5 51
2019-10-04 09:00:00 20.6 0 Calma 4 Norte 0 1016.7 0.1 60
2019-10-04 08:00:00 18.6 0 Calma 7 Nordeste 0 1017.1 0.6 67
2019-10-04 07:00:00 18.6 2 Norte 5 Norte 0 1016.7 0 61
2019-10-04 06:00:00 19 3 Norte 13 Este 0 1016.6 -0.4 66
2019-10-04 05:00:00 19.4 4 Nordeste 9 Oeste 0 1016.5 -0.5 58
2019-10-04 04:00:00 19.4 0 Calma 9 Nordeste 0 1016.7 -0.6 59
2019-10-04 03:00:00 19.9 0 Calma 7 Nordeste 0 1017 -0.4 69
2019-10-04 02:00:00 20.4 3 Este 13 Este 0 1017 -0.2 60
2019-10-04 01:00:00 20.4 6 Este 17 Este 0 1017.3 0.7 73
2019-10-04 00:00:00 19.7 6 Nordeste 17 Este 0 1017.4 1.2 69
2019-10-03 23:00:00 19.6 4 Nordeste 9 Nordeste 0 1017.2 1.1 92
2019-10-03 22:00:00 20.5 0 Calma 5 Noroeste 0 1016.6 0.8 93
2019-10-03 21:00:00 20.9 0 Calma 8 Noroeste 0 1016.2 0.8 92
2019-10-03 20:00:00 21.1 2 Noroeste 17 Oeste 0 1016.1 0.3 87
2019-10-03 19:00:00 21.4 10 Oeste 21 Oeste 0 1015.8 0.1 87
2019-10-03 18:00:00 22.3 11 Oeste 22 Oeste 0 1015.4 -0.8 78
2019-10-03 17:00:00 22.2 8 Sudoeste 19 Oeste 0 1015.8 -1.4 79
2019-10-03 16:00:00 22.3 12 Oeste 23 Oeste 0 1015.7 -1.5 78
2019-10-03 15:00:00 22.1 17 Oeste 28 Oeste 0 1016.2 -0.4 77
2019-10-03 14:00:00 22.8 14 Oeste 22 Sudoeste 0 1017.2 0 77
2019-10-03 13:00:00 23.7 9 Sudoeste 15 Oeste 0 1017.2 0.9 62
2019-10-03 12:00:00 24.9 6 Sudoeste 11 Sudoeste 0 1016.6 0.8 49
2019-10-03 11:00:00 23 5 Sudoeste 13 Oeste 0 1017.2 0.5 60
2019-10-03 10:00:00 23.6 4 Oeste 27 Norte 0 1016.3 0 50
2019-10-03 09:00:00 22.8 0 Calma 5 Noroeste 0 1015.8 -0.5 53
2019-10-03 08:00:00 20.3 0 Calma 5 Noroeste 0 1016.7 0.6 56
2019-10-03 07:00:00 20.6 0 Calma 6 Norte 0 1016.3 0 56
2019-10-03 06:00:00 20.6 3 Norte 5 Norte 0 1016.3 -0.1 61
2019-10-03 05:00:00 20.6 2 Oeste 6 Nordeste 0 1016.1 -0.1 65
2019-10-03 04:00:00 20.3 0 Calma 6 Nordeste 0 1016.3 0.2 66
2019-10-03 03:00:00 19.9 2 Norte 4 Norte 0 1016.4 0.5 73
2019-10-03 02:00:00 20.7 0 Calma 6 Norte 0 1016.2 1.1 72
2019-10-03 01:00:00 21.6 0 Calma 6 Este 0 1016.1 1.8 72
2019-10-03 00:00:00 22.4 3 Este 22 Este 0 1015.9 2.2 65
2019-10-02 23:00:00 22.7 4 Este 15 Este 0 1015.1 2.2 70
2019-10-02 22:00:00 22.5 6 Este 19 Este 0 1014.3 1.9 72
2019-10-02 21:00:00 22.4 5 Este 16 Este 0 1013.7 2 77
2019-10-02 20:00:00 22.7 5 Este 14 Este 0 1012.9 0.9 76
2019-10-02 19:00:00 23.3 6 Este 14 Sudeste 0 1012.4 0.1 73
2019-10-02 18:00:00 23.5 6 Sudoeste 21 Oeste 0 1011.7 -0.8 72
2019-10-02 17:00:00 23 13 Oeste 28 Oeste 0 1012 -1.5 74
2019-10-02 16:00:00 23 17 Oeste 30 Sudoeste 0 1012.3 -1.4 75
2019-10-02 15:00:00 22.6 19 Oeste 28 Oeste 0 1012.5 -0.6 78
2019-10-02 14:00:00 23.5 10 Sudoeste 17 Sudoeste 0 1013.5 0.6 75
2019-10-02 13:00:00 24.5 6 Sudoeste 13 Sudoeste 0 1013.7 0.5 66
2019-10-02 12:00:00 26.2 3 Sur 11 Sur 0 1013.1 0.5 57
2019-10-02 11:00:00 26.3 4 Sudoeste 13 Oeste 0 1012.9 0.3 48
2019-10-02 10:00:00 23.1 8 Oeste 13 Oeste 0 1013.2 0.8 57
2019-10-02 09:00:00 23.6 4 Noroeste 15 Norte 0 1012.6 1 44
2019-10-02 08:00:00 23.1 2 Noroeste 10 Norte 0 1012.6 1.2 39
2019-10-02 07:00:00 22.2 3 Nordeste 13 Este 0 1012.4 0.8 39
2019-10-02 06:00:00 23.3 4 Noroeste 14 Norte 0 1011.6 0.3 42
2019-10-02 05:00:00 22.4 0 Calma 9 Noroeste 0 1011.4 0 44
2019-10-02 04:00:00 23.4 5 Oeste 16 Norte 0 1011.6 -0.1 48
2019-10-02 03:00:00 25.3 6 Nordeste 12 Norte 0 1011.3 0.3 41
2019-10-02 02:00:00 24 3 Norte 8 Nordeste 0 1011.4 1.7 44
2019-10-02 01:00:00 21.8 3 Norte 11 Oeste 0 1011.7 1.9 72
2019-10-02 00:00:00 23 12 Oeste 22 Oeste 0 1011 1.4 70
2019-10-01 23:00:00 27 3 Norte 11 Este 0 1009.7 0.4 39
2019-10-01 22:00:00 24.8 4 Norte 9 Norte 0 1009.8 1.2 60
2019-10-01 21:00:00 22.9 2 Noroeste 27 Oeste 0 1009.6 0.8 73
2019-10-01 20:00:00 23.7 15 Oeste 40 Oeste 0 1009.3 -0.1 68
2019-10-01 19:00:00 25 23 Oeste 50 Oeste 0 1008.6 -1.3 61
2019-10-01 18:00:00 24.8 26 Oeste 44 Oeste 0 1008.8 -2.1 61
2019-10-01 17:00:00 24.3 24 Oeste 40 Oeste 0 1009.4 -2.4 66
2019-10-01 16:00:00 23.6 19 Sudoeste 28 Sudoeste 0 1009.9 -2.9 71
2019-10-01 15:00:00 23.4 17 Oeste 26 Sudoeste 0 1010.9 -1.9 79
2019-10-01 14:00:00 23.1 16 Oeste 27 Sudoeste 0 1011.8 -1.8 83
2019-10-01 13:00:00 22.4 16 Sudoeste 32 Oeste 0 1012.8 -0.7 86
2019-10-01 12:00:00 22.8 21 Oeste 32 Oeste 0 1012.8 -0.2 80
2019-10-01 11:00:00 21.7 16 Oeste 23 Oeste 0 1013.6 0.8 88
2019-10-01 10:00:00 20.9 8 Oeste 13 Oeste 0 1013.5 0.3 82
2019-10-01 09:00:00 20 0 Calma 13 Oeste 0 1013 -0.3 87
2019-10-01 08:00:00 19.5 3 Oeste 9 Oeste 0 1012.8 -0.6 87
2019-10-01 07:00:00 18.3 2 Nordeste 6 Este 0 1013.2 -0.9 84
2019-10-01 06:00:00 19.6 0 Calma 10 Oeste 0 1013.3 -1.4 88
2019-10-01 05:00:00 20.1 7 Oeste 12 Oeste 0 1013.4 -1.7 88
2019-10-01 04:00:00 20.3 0 Calma 8 Este 0 1014.1 -0.6 91
2019-10-01 03:00:00 20.9 2 Nordeste 8 Este 0 1014.7 -0.4 89
2019-10-01 02:00:00 20.1 0 Calma 10 Este 0 1015.1 0.3 91
2019-10-01 01:00:00 21.1 2 Este 7 Este 0 1014.7 0.1 89
2019-10-01 00:00:00 20.8 0 Calma 3 Noroeste 0 1015.1 0.8 89
2019-09-30 23:00:00 21.4 0 Calma 5 Oeste 0 1014.8 1.3 89
2019-09-30 22:00:00 21.6 2 Oeste 14 Sudoeste 0 1014.6 0.4 90
2019-09-30 21:00:00 21.6 10 Sudoeste 21 Oeste 0 1014.3 0.5 91
2019-09-30 20:00:00 22.8 6 Este 19 Sudoeste 0 1013.5 -0.1 87
2019-09-30 19:00:00 22.1 14 Oeste 22 Sudoeste 0 1014.2 0.3 90
2019-09-30 18:00:00 22.9 11 Sudoeste 23 Sudoeste 0 1013.8 -0.7 87
2019-09-30 17:00:00 23.1 12 Sudoeste 25 Sudoeste 0 1013.6 -2.1 85
2019-09-30 16:00:00 23.3 15 Sudoeste 24 Sudoeste 0 1013.9 -2.4 84
2019-09-30 15:00:00 24.3 8 Sudoeste 19 Sudoeste 0 1014.5 -1.8 78
2019-09-30 14:00:00 23.7 11 Sudoeste 19 Sudoeste 0 1015.7 -0.5 82
2019-09-30 13:00:00 23.9 8 Sudoeste 14 Sudoeste 0 1016.3 0.4 78
2019-09-30 12:00:00 24.2 6 Sudoeste 13 Sudoeste 0 1016.3 0.3 76
2019-09-30 11:00:00 24.5 2 Sudoeste 6 Sudoeste 0 1016.2 -0.1 73
2019-09-30 10:00:00 22.7 2 Este 6 Nordeste 0 1015.9 -0.2 75
2019-09-30 09:00:00 20.4 2 Nordeste 5 Nordeste 0 1016 0.1 82
2019-09-30 08:00:00 19 3 Nordeste 8 Nordeste 0 1016.3 0.3 81
2019-09-30 07:00:00 19.5 0 Calma 5 Norte 0 1016.1 -0.2 88
2019-09-30 06:00:00 19.9 2 Norte 6 Norte 0 1015.9 -0.7 85
2019-09-30 05:00:00 19.6 0 Calma 6 Este 0 1016 -1 77
2019-09-30 04:00:00 19.2 0 Calma 6 Norte 0 1016.3 -0.8 86
2019-09-30 03:00:00 20.9 3 Noroeste 11 Oeste 0 1016.6 -0.7 92
2019-09-30 02:00:00 20.2 0 Calma 4 Norte 0 1017 0.1 92
2019-09-30 01:00:00 20.3 2 Norte 4 Norte 0 1017.1 0.6 93
2019-09-30 00:00:00 21.2 2 Norte 8 Oeste 0 1017.3 1.3 93
2019-09-29 23:00:00 22.1 6 Oeste 19 Oeste 0 1016.9 1 93
2019-09-29 22:00:00 22.5 11 Oeste 20 Oeste 0 1016.5 1 89
2019-09-29 21:00:00 22.3 12 Oeste 21 Oeste 0 1016 0.7 89
2019-09-29 20:00:00 22.6 13 Oeste 19 Oeste 0 1015.9 0.1 89
2019-09-29 19:00:00 23.3 12 Oeste 17 Oeste 0 1015.5 -0.8 83
2019-09-29 18:00:00 24.5 7 Sudoeste 15 Sudoeste 0 1015.3 -1.5 76
2019-09-29 17:00:00 24.8 8 Sudoeste 18 Sudoeste 0 1015.8 -2.2 74
2019-09-29 16:00:00 24.4 12 Sudoeste 19 Sudoeste 0 1016.3 -2 76
2019-09-29 15:00:00 24.4 11 Sudoeste 19 Sudoeste 0 1016.8 -1.6 76
2019-09-29 14:00:00 24.9 8 Sudoeste 14 Sudoeste 0 1018 -0.9 76
2019-09-29 13:00:00 25.1 5 Sudoeste 10 Sudoeste 0 1018.3 0.8 73
2019-09-29 12:00:00 24.9 3 Sudoeste 8 Sudoeste 0 1018.4 0.6 74
2019-09-29 11:00:00 24.2 2 Sur 9 Sur 0 1018.9 1.3 72
2019-09-29 10:00:00 24.5 0 Calma 4 Nordeste 0 1017.5 0.3 73
2019-09-29 09:00:00 21.6 0 Calma 3 Oeste 0 1017.8 0.4 82
2019-09-29 08:00:00 20.1 0 Calma 7 Este 0 1017.6 0 82
2019-09-29 07:00:00 20.1 2 Nordeste 8 Este 0 1017.2 -1.2 82
2019-09-29 06:00:00 20.6 0 Calma 6 Este 0 1017.4 -1.2 83
2019-09-29 05:00:00 20.5 0 Calma 5 Norte 0 1017.6 -1.2 88
2019-09-29 04:00:00 20.5 3 Norte 8 Este 0 1018.4 -0.5 90
2019-09-29 03:00:00 21.9 0 Calma 6 Norte 0 1018.6 -0.3 91
2019-09-29 02:00:00 21.7 0 Calma 5 Norte 0 1018.8 -0.2 90
2019-09-29 01:00:00 22.1 0 Calma 13 Este 0 1018.9 0.3 89
2019-09-29 00:00:00 22.3 2 Este 7 Este 0 1018.9 1.5 92
2019-09-28 23:00:00 22.6 0 Calma 4 Sudeste 0 1019 1.7 92
2019-09-28 22:00:00 22.7 0 Calma 8 Sudeste 0 1018.6 2.1 90
2019-09-28 21:00:00 23.6 2 Sudeste 9 Nordeste 0 1017.4 1.6 84
2019-09-28 20:00:00 23.6 4 Este 13 Sudeste 0 1017.3 1.4 75
2019-09-28 19:00:00 24.3 6 Sudeste 12 Sudeste 0 1016.5 0.3 68
2019-09-28 18:00:00 27.3 0 Calma 8 Sur 0 1015.8 -1.5 62
2019-09-28 17:00:00 25.8 4 Sur 10 Sudeste 0 1015.9 -2.3 66
2019-09-28 16:00:00 27.2 0 Calma 11 Sudoeste 0 1016.2 -2.6 61
2019-09-28 15:00:00 25.1 6 Sudoeste 11 Sudoeste 0 1017.3 -1.8 71
2019-09-28 14:00:00 26.1 3 Sudoeste 8 Sudoeste 0 1018.2 -1.3 71
2019-09-28 13:00:00 24.8 3 Sur 8 Sudeste 0 1018.8 0.1 73
2019-09-28 12:00:00 22.6 4 Sur 9 Sur 0 1019.1 1.2 84
2019-09-28 11:00:00 22.1 4 Sudeste 8 Sudeste 0 1019.5 1.5 87
2019-09-28 10:00:00 23.6 4 Sudeste 6 Sudeste 0 1018.7 1.4 75
2019-09-28 09:00:00 20.3 3 Norte 9 Este 0 1017.9 0.7 71
2019-09-28 08:00:00 18.8 0 Calma 4 Norte 0 1018 1 88
2019-09-28 07:00:00 20.1 2 Norte 6 Noroeste 0 1017.3 0.2 92
2019-09-28 06:00:00 19.9 0 Calma 5 Norte 0 1017.2 -0.7 88
2019-09-28 05:00:00 19.7 0 Calma 5 Noroeste 0 1017 -1.3 89
2019-09-28 04:00:00 20.2 3 Norte 6 Norte 0 1017.1 -1.5 91
2019-09-28 03:00:00 20.3 0 Calma 6 Este 0 1017.9 -0.8 92
2019-09-28 02:00:00 20.9 3 Nordeste 7 Sudoeste 0 1018.3 -0.3 92
2019-09-28 01:00:00 21.4 5 Oeste 9 Oeste 0 1018.6 0.7 92
2019-09-28 00:00:00 21.2 0 Calma 5 Norte 0 1018.7 1.6 92
2019-09-27 23:00:00 21.4 2 Noroeste 12 Oeste 0 1018.6 2.1 93
2019-09-27 22:00:00 21.7 8 Oeste 14 Oeste 0 1017.9 1.9 93
2019-09-27 21:00:00 21.7 10 Oeste 14 Oeste 0 1017.1 1.5 92
2019-09-27 20:00:00 21.9 9 Oeste 18 Oeste 0 1016.5 0.9 89
2019-09-27 19:00:00 22.6 10 Oeste 18 Sudoeste 0 1016 -0.5 85
2019-09-27 18:00:00 23.2 10 Sudoeste 19 Sudoeste 0 1015.6 -1.3 82
2019-09-27 17:00:00 22.9 13 Sudoeste 20 Sudoeste 0 1015.6 -2.4 82
2019-09-27 16:00:00 22.7 13 Oeste 19 Oeste 0 1016.5 -1.8 83
2019-09-27 15:00:00 23 10 Sudoeste 18 Sudoeste 0 1016.9 -1.3 82
2019-09-27 14:00:00 23.4 10 Sudoeste 16 Sudoeste 0 1018 -0.2 79
2019-09-27 13:00:00 23.4 9 Sudoeste 16 Sudoeste 0 1018.3 0.3 79
2019-09-27 12:00:00 23.5 7 Sudoeste 13 Sudoeste 0 1018.2 0.3 82
2019-09-27 11:00:00 22.9 6 Sudoeste 13 Oeste 0 1018.2 0.2 86
2019-09-27 10:00:00 22.2 5 Sudoeste 10 Sudoeste 0 1018 0.3 89
2019-09-27 09:00:00 21.2 3 Noroeste 8 Oeste 0 1017.9 0.2 93
2019-09-27 08:00:00 20.7 4 Oeste 8 Oeste 0 1018 0.2 93
2019-09-27 07:00:00 20.6 2 Norte 4 Norte 0 1017.7 -0.3 93
2019-09-27 06:00:00 20.8 2 Norte 4 Norte 0 1017.7 -0.6 93
2019-09-27 05:00:00 21.3 0 Calma 5 Noroeste 0 1017.8 -0.7 93
2019-09-27 04:00:00 21.5 0 Calma 11 Este 0 1018 -0.8 92
2019-09-27 03:00:00 22.2 3 Nordeste 7 Nordeste 0 1018.3 -0.6 92
2019-09-27 02:00:00 22.6 2 Sudeste 7 Este 0 1018.5 -0.1 92
2019-09-27 01:00:00 22.7 3 Este 6 Este 0 1018.8 0.9 92
2019-09-27 00:00:00 22.7 2 Este 8 Este 0 1018.9 1.7 91
2019-09-26 23:00:00 22.9 4 Este 10 Este 0 1018.6 2 89
2019-09-26 22:00:00 23.1 3 Este 8 Este 0 1017.9 1.6 89
2019-09-26 21:00:00 23.1 3 Sudeste 6 Este 0 1017.2 1.2 87
2019-09-26 20:00:00 23.3 0 Calma 9 Sudeste 0 1016.6 0.5 84
2019-09-26 19:00:00 24.8 3 Sur 6 Sudeste 0 1016.3 0.2 79
2019-09-26 18:00:00 25.2 0 Calma 6 Sudeste 0 1016 -0.1 76
2019-09-26 17:00:00 26 2 Sur 9 Sur 0 1016.1 -1.4 74
2019-09-26 16:00:00 26.5 3 Sur 9 Sudeste 0 1016.1 -1.5 73
2019-09-26 15:00:00 26 3 Sudeste 10 Este 0 1016.1 -1.3 74
2019-09-26 14:00:00 26 4 Sur 12 Sudeste 0 1017.5 -0.1 75
2019-09-26 13:00:00 27.5 2 Sur 8 Sudeste 0 1017.6 0.6 65
2019-09-26 12:00:00 27 2 Sur 9 Sudeste 0 1017.4 0.5 60
2019-09-26 11:00:00 25.2 5 Sudeste 10 Sudeste 0 1017.6 0.3 61
2019-09-26 10:00:00 25.2 3 Este 8 Este 0 1017 0.5 54
2019-09-26 09:00:00 22.4 2 Nordeste 5 Norte 0 1016.9 0.7 67
2019-09-26 08:00:00 21 3 Norte 8 Este 0 1017.3 1.2 72
2019-09-26 07:00:00 21.5 4 Nordeste 14 Este 0 1016.5 0.6 57
2019-09-26 06:00:00 20.8 4 Este 10 Este 0 1016.2 0.2 73
2019-09-26 05:00:00 21.2 0 Calma 16 Este 0 1016.1 0.2 77
2019-09-26 04:00:00 20.1 7 Este 13 Nordeste 0 1015.9 0 89
2019-09-26 03:00:00 21.7 4 Este 17 Este 0 1016 0.2 92
2019-09-26 02:00:00 21.9 5 Este 15 Este 0 1015.9 0.6 92
2019-09-26 01:00:00 21.6 5 Este 15 Este 0 1015.9 1.3 92
2019-09-26 00:00:00 22.2 5 Este 15 Este 0 1015.8 2.3 92
2019-09-25 23:00:00 22.1 6 Este 16 Nordeste 0 1015.3 2 92
2019-09-25 22:00:00 22.3 6 Este 13 Este 0 1014.6 2.2 91
2019-09-25 21:00:00 22.6 5 Este 10 Este 0 1013.5 1.4 88
2019-09-25 20:00:00 23 4 Sudeste 6 Sudeste 0 1013.3 1.6 83
2019-09-25 19:00:00 24.7 2 Sudeste 8 Sur 0 1012.4 -0.6 75
2019-09-25 18:00:00 25.6 4 Sur 14 Sur 0 1012.1 -1.5 71
2019-09-25 17:00:00 26.5 3 Sur 14 Sudoeste 0 1011.7 -2.6 72
2019-09-25 16:00:00 24.7 9 Sudoeste 17 Sudoeste 0 1013 -1.6 74
2019-09-25 15:00:00 24.5 6 Sudoeste 12 Sudoeste 0 1013.6 -1 73
2019-09-25 14:00:00 25.4 3 Sudoeste 10 Sudoeste 0 1014.3 -0.6 72
2019-09-25 13:00:00 25.4 0 Calma 9 Sudoeste 0 1014.6 0.4 73
2019-09-25 12:00:00 24.4 3 Sur 9 Sur 0 1014.6 0.3 78
2019-09-25 11:00:00 23 5 Sudeste 15 Sudeste 0 1014.9 0.1 82
2019-09-25 10:00:00 23.2 3 Este 5 Sudeste 0 1014.2 -0.6 78
2019-09-25 09:00:00 21.3 2 Este 5 Nordeste 0 1014.3 -0.3 78
2019-09-25 08:00:00 19.8 0 Calma 5 Este 0 1014.8 0.2 88
2019-09-25 07:00:00 19.7 0 Calma 8 Este 0 1014.8 -0.1 86
2019-09-25 06:00:00 19.8 0 Calma 8 Este 0 1014.6 -0.6 80
2019-09-25 05:00:00 19.8 0 Calma 5 Noroeste 0 1014.6 -0.8 86
2019-09-25 04:00:00 19.8 0 Calma 6 Norte 0 1014.9 -0.9 84
2019-09-25 03:00:00 19.7 3 Norte 5 Noroeste 0 1015.2 -0.9 83
2019-09-25 02:00:00 20.8 0 Calma 11 Oeste 0 1015.4 -0.7 86
2019-09-25 01:00:00 21.1 3 Oeste 7 Norte 0 1015.8 -0.2 84
2019-09-25 00:00:00 20.5 3 Norte 10 Oeste 0 1016.1 0.5 84
2019-09-24 23:00:00 21.1 8 Oeste 14 Sudoeste 0 1016.1 0.6 89
2019-09-24 22:00:00 21.1 9 Oeste 14 Oeste 0 1016 0.6 87
2019-09-24 21:00:00 21.6 9 Oeste 13 Oeste 0 1015.6 0.4 84
2019-09-24 20:00:00 21.9 10 Oeste 17 Oeste 0 1015.5 -0.1 78
2019-09-24 19:00:00 22.7 12 Oeste 25 Sudoeste 0 1015.4 -1 78
2019-09-24 18:00:00 22.9 13 Sudoeste 22 Sudoeste 0 1015.2 -1.5 76
2019-09-24 17:00:00 22.7 15 Sudoeste 23 Sudoeste 0 1015.6 -2.2 74
2019-09-24 16:00:00 23.1 12 Oeste 19 Sudoeste 0 1016.4 -2 75
2019-09-24 15:00:00 23.4 10 Sudoeste 23 Sudoeste 0 1016.7 -1.5 76
2019-09-24 14:00:00 23.5 13 Sudoeste 21 Sudoeste 0 1017.8 -0.9 71
2019-09-24 13:00:00 23.3 12 Sudoeste 19 Sudoeste 0 1018.4 1.1 73
2019-09-24 12:00:00 23.5 10 Sudoeste 17 Oeste 0 1018.2 0.7 75
2019-09-24 11:00:00 22.8 10 Oeste 17 Oeste 0 1018.7 0.1 65
2019-09-24 10:00:00 25.1 0 Calma 4 Sur 0 1017.3 -1.4 57
2019-09-24 09:00:00 23.5 0 Calma 5 Norte 0 1017.5 -1.3 60
2019-09-24 08:00:00 19.3 3 Norte 6 Norte 0 1018.6 -0.1 67
2019-09-24 07:00:00 19.3 0 Calma 4 Noroeste 0 1018.7 -0.2 77
2019-09-24 06:00:00 19.7 2 Norte 4 Norte 0 1018.8 -0.5 78
2019-09-24 05:00:00 20 0 Calma 4 Norte 0 1018.7 -1 78
2019-09-24 04:00:00 20 0 Calma 4 Norte 0 1018.9 -1.1 80
2019-09-24 03:00:00 20.1 3 Norte 5 Norte 0 1019.3 -0.5 82
2019-09-24 02:00:00 20.6 0 Calma 4 Noroeste 0 1019.7 0 83
2019-09-24 01:00:00 20.8 0 Calma 4 Noroeste 0 1020 0.9 86
2019-09-24 00:00:00 21.3 0 Calma 5 Este 0 1019.8 1.2 83
2019-09-23 23:00:00 21.2 3 Sudeste 4 Sudeste 0 1019.7 1.6 85
2019-09-23 22:00:00 21.8 2 Sudeste 4 Sudeste 0 1019.1 1.8 84
2019-09-23 21:00:00 22.6 2 Sudeste 4 Sur 0 1018.6 2.3 78
2019-09-23 20:00:00 23.3 0 Calma 6 Sudoeste 0 1018.1 1.4 73
2019-09-23 19:00:00 24.8 2 Sur 6 Sudeste 0 1017.3 1.1 66
2019-09-23 18:00:00 26.6 0 Calma 8 Sudeste 0 1016.3 -0.9 60
2019-09-23 17:00:00 25.7 3 Sur 10 Sudoeste 0 1016.7 -1.7 61
2019-09-23 16:00:00 27.4 3 Sudoeste 12 Sudoeste 0 1016.2 -2.3 56
2019-09-23 15:00:00 25.1 8 Oeste 14 Sudoeste 0 1017.2 -1.5 63
2019-09-23 14:00:00 23.6 9 Sudoeste 15 Oeste 0 1018.4 -0.1 76
2019-09-23 13:00:00 23.9 8 Sudoeste 12 Sudoeste 0 1018.5 0.5 73
2019-09-23 12:00:00 23.3 6 Sudeste 14 Nordeste 0 1018.7 1.8 83
2019-09-23 11:00:00 23.3 7 Este 20 Este 0 1018.5 0.8 82
2019-09-23 10:00:00 23.5 8 Este 18 Este 0 1018 1.2 60
2019-09-23 09:00:00 22.5 0 Calma 4 Norte 0 1016.9 0.7 64
2019-09-23 08:00:00 20.5 0 Calma 10 Norte 0 1017.7 2 66
2019-09-23 07:00:00 20.2 0 Calma 11 Este 0 1016.8 1.2 64
2019-09-23 06:00:00 21.9 5 Este 10 Nordeste 0 1016.2 0.7 64
2019-09-23 05:00:00 20.8 2 Norte 11 Norte 0 1015.7 0.3 73
2019-09-23 04:00:00 20.8 2 Este 8 Este 0 1015.6 0.4 81
2019-09-23 03:00:00 21.9 4 Nordeste 8 Noroeste 0 1015.5 0.6 86
2019-09-23 02:00:00 21.1 0 Calma 6 Norte 0 1015.4 0.8 88
2019-09-23 01:00:00 21.4 0 Calma 8 Oeste 0 1015.2 1.4 88
2019-09-23 00:00:00 21.4 4 Oeste 18 Oeste 0 1014.9 2 89
2019-09-22 23:00:00 22 14 Oeste 34 Sudoeste 0 1014.6 2.1 88
2019-09-22 22:00:00 22.6 20 Oeste 34 Oeste 0 1013.8 2 81
2019-09-22 21:00:00 23.5 22 Oeste 39 Sudoeste 0 1012.9 0.7 77
2019-09-22 20:00:00 23.8 28 Oeste 49 Oeste 0 1012.5 1 73
2019-09-22 19:00:00 24.4 26 Oeste 49 Oeste 0 1011.8 0 73
2019-09-22 18:00:00 23.7 28 Oeste 52 Oeste 0 1012.2 0 78
2019-09-22 17:00:00 23.9 25 Oeste 42 Oeste 0 1011.5 -1.5 79
2019-09-22 16:00:00 23.5 27 Oeste 45 Oeste 0 1011.8 -1.6 83
2019-09-22 15:00:00 23.1 31 Oeste 45 Oeste 0 1012.2 -1.4 86
2019-09-22 14:00:00 23 25 Oeste 39 Oeste 0 1013 -0.4 86
2019-09-22 13:00:00 23 25 Oeste 36 Oeste 0 1013.4 0.1 83
2019-09-22 12:00:00 23.4 21 Oeste 35 Oeste 0 1013.6 0.6 79
2019-09-22 11:00:00 23.5 15 Oeste 27 Oeste 0 1013.4 0.1 78
2019-09-22 10:00:00 23.7 7 Oeste 12 Sudoeste 0 1013.3 0.4 73
2019-09-22 09:00:00 22.7 0 Calma 5 Noroeste 0 1013 0.4 76
2019-09-22 08:00:00 21.4 2 Noroeste 14 Oeste 0 1013.3 0.7 82
2019-09-22 07:00:00 21.7 6 Oeste 13 Oeste 0 1012.9 0.1 88
2019-09-22 06:00:00 21.5 2 Oeste 17 Oeste 0 1012.6 -0.4 89
2019-09-22 05:00:00 22.2 4 Oeste 10 Oeste 0 1012.6 -0.4 87
2019-09-22 04:00:00 22.1 6 Oeste 23 Oeste 0 1012.8 -0.3 89
2019-09-22 03:00:00 22.4 13 Oeste 31 Oeste 0 1013 -0.2 88
2019-09-22 02:00:00 22.5 13 Oeste 23 Oeste 0 1013 -0.1 88
2019-09-22 01:00:00 22.7 15 Oeste 25 Oeste 0 1013.1 0.3 91
2019-09-22 00:00:00 22.9 12 Oeste 19 Oeste 0 1013.2 1.2 92
2019-09-21 23:00:00 23.3 13 Oeste 22 Oeste 0 1013.1 1.4 92
2019-09-21 22:00:00 23.4 12 Oeste 20 Oeste 0 1012.8 0.9 92
2019-09-21 21:00:00 23.4 13 Oeste 20 Oeste 0 1012 0.3 91
2019-09-21 20:00:00 23.5 13 Oeste 23 Sudoeste 0 1011.7 -0.3 92
2019-09-21 19:00:00 24 13 Sudoeste 27 Oeste 0 1011.9 -0.2 89
2019-09-21 18:00:00 23.8 20 Oeste 29 Oeste 0 1011.7 -0.3 88
2019-09-21 17:00:00 24.2 20 Oeste 31 Oeste 0 1012 -0.3 85
2019-09-21 16:00:00 24.2 16 Oeste 26 Oeste 0 1012.1 -1 83
2019-09-21 15:00:00 25.2 13 Sudoeste 22 Oeste 0 1012 -0.6 82
2019-09-21 14:00:00 25.2 9 Sudoeste 17 Oeste 0 1012.3 -1 78
2019-09-21 13:00:00 25.5 9 Oeste 17 Sudoeste 0 1013.1 0.1 76
2019-09-21 12:00:00 26.2 7 Sudoeste 12 Sudoeste 0 1012.6 0.3 70
2019-09-21 11:00:00 24.7 6 Sudoeste 10 Sudoeste 0 1013.3 1.2 78
2019-09-21 10:00:00 24.6 3 Sudoeste 8 Sur 0 1013 1 77
2019-09-21 09:00:00 24.1 0 Calma 5 Este 0 1012.3 0.3 76
2019-09-21 08:00:00 23.5 0 Calma 8 Noroeste 0 1012.1 0.3 80
2019-09-21 07:00:00 23.4 4 Noroeste 10 Oeste 0 1012 -0.1 81
2019-09-21 06:00:00 23 4 Noroeste 7 Sudoeste 0 1012 -0.4 81
2019-09-21 05:00:00 23 0 Calma 9 Oeste 0 1011.8 -0.6 83
2019-09-21 04:00:00 23.3 3 Oeste 7 Oeste 0 1012.1 -1.3 84
2019-09-21 03:00:00 23.5 0 Calma 6 Sur 0 1012.4 -2.1 86
2019-09-21 02:00:00 24 2 Este 8 Sudoeste 0 1012.4 -2 84
2019-09-21 01:00:00 23.9 5 Oeste 14 Oeste 0 1013.4 -0.1 87
2019-09-21 00:00:00 24.1 8 Oeste 13 Sudoeste 0 1014.5 1.5 86
2019-09-20 23:00:00 24.4 7 Sudoeste 15 Oeste 0 1014.4 2.1 84
2019-09-20 22:00:00 24.1 6 Oeste 22 Sudoeste 0 1013.5 0.9 86
2019-09-20 21:00:00 24.2 12 Oeste 18 Oeste 0 1013 0.5 86
2019-09-20 20:00:00 24.7 4 Sudoeste 19 Oeste 0 1012.3 0.2 83
2019-09-20 19:00:00 25 5 Sudoeste 21 Este 0 1012.6 1 82
2019-09-20 18:00:00 25.5 3 Sudeste 12 Este 0 1012.5 0 77
2019-09-20 17:00:00 26.1 2 Oeste 13 Sur 0 1012.1 -0.6 76
2019-09-20 16:00:00 25.5 9 Sudeste 22 Sudeste 0 1011.6 -1.8 79
2019-09-20 15:00:00 26 12 Sudeste 19 Sudeste 0 1012.5 -1.9 74
2019-09-20 14:00:00 28.6 3 Sur 8 Sudoeste 0 1012.7 -1.7 56
2019-09-20 13:00:00 28.1 4 Sudoeste 13 Oeste 0 1013.4 -1.6 62
2019-09-20 12:00:00 25.8 3 Sur 14 Sudoeste 0 1014.4 0.5 73
2019-09-20 11:00:00 25.2 5 Sudeste 15 Sur 0 1014.4 1.6 81
2019-09-20 10:00:00 23.7 5 Sur 16 Sudoeste 0 1015 2.8 84
2019-09-20 09:00:00 24.3 8 Sudoeste 20 Oeste 0 1013.9 1.1 78
2019-09-20 08:00:00 23.5 3 Norte 22 Este 0 1012.8 -1.8 73
2019-09-20 07:00:00 24.5 12 Este 21 Este 0 1012.2 -3.6 68
2019-09-20 06:00:00 23.5 3 Nordeste 18 Norte 0 1012.8 -3 81
2019-09-20 05:00:00 23.5 8 Norte 16 Norte 0 1014.6 -1.3 83
2019-09-20 04:00:00 23.5 4 Este 10 Este 0 1015.8 0.4 86
2019-09-20 03:00:00 23.7 4 Este 9 Este 0 1015.8 0.5 83
2019-09-20 02:00:00 24.3 2 Este 8 Este 0 1015.9 0.7 81
2019-09-20 01:00:00 24 3 Este 11 Este 0 1015.4 0.3 77
2019-09-20 00:00:00 24 2 Nordeste 11 Este 0 1015.3 0.7 76
2019-09-19 23:00:00 24.1 4 Este 10 Nordeste 0 1015.2 0.8 76
2019-09-19 22:00:00 24.4 3 Este 8 Este 0 1015.1 1.9 76
2019-09-19 21:00:00 24.7 3 Norte 6 Norte 0 1014.6 1.7 75
2019-09-19 20:00:00 24.5 0 Calma 4 Este 0 1014.4 0.9 70
2019-09-19 19:00:00 26.7 0 Calma 9 Sudoeste 0 1013.2 -0.8 67
2019-09-19 18:00:00 27.4 4 Sur 12 Sudoeste 0 1012.9 -1.2 66
2019-09-19 17:00:00 25.6 8 Sudoeste 14 Sudoeste 0 1013.5 -1.7 73
2019-09-19 16:00:00 24.9 8 Sudoeste 14 Sudoeste 0 1014 -1.5 74
2019-09-19 15:00:00 26 6 Sudoeste 15 Oeste 0 1014.1 -1.7 72
2019-09-19 14:00:00 25.5 6 Sudoeste 13 Sudoeste 0 1015.2 -0.2 72
2019-09-19 13:00:00 25.7 6 Sudoeste 13 Sudoeste 0 1015.5 0.3 72
2019-09-19 12:00:00 25.7 4 Sudoeste 11 Sudoeste 0 1015.8 1.2 73
2019-09-19 11:00:00 25 4 Sudeste 9 Sur 0 1015.4 0.6 75
2019-09-19 10:00:00 24.3 3 Sudeste 6 Sudeste 0 1015.2 0.7 78
2019-09-19 09:00:00 23.4 0 Calma 6 Norte 0 1014.6 0.1 84
2019-09-19 08:00:00 20.8 0 Calma 4 Noroeste 0 1014.8 -0.1 86
2019-09-19 07:00:00 20.6 0 Calma 6 Oeste 0 1014.5 -0.8 88
2019-09-19 06:00:00 20.7 0 Calma 4 Norte 0 1014.5 -1.2 87
2019-09-19 05:00:00 21.1 0 Calma 6 Norte 0 1014.9 -0.8 90
2019-09-19 04:00:00 21.6 0 Calma 8 Sudoeste 0 1015.3 -0.5 91
2019-09-19 03:00:00 21.4 8 Oeste 12 Oeste 0 1015.7 0 92
2019-09-19 02:00:00 21.9 0 Calma 4 Noroeste 0 1015.7 0.2 93
2019-09-19 01:00:00 22 0 Calma 6 Sudoeste 0 1015.8 0.9 93
2019-09-19 00:00:00 22.5 3 Oeste 14 Oeste 0 1015.7 1.3 92